Time;durP1;ratioP1;P1;durP2;ratioP2;P2;SDS_P1;SDS_P2;PMS_P1;PMS_P2;Temp;Humidity;BMP_temperature;BMP_pressure;BME280_temperature;BME280_humidity;BME280_pressure;Samples;Min_cycle;Max_cycle;Signal;HPM_P1;HPM_P2
2022/09/19 00:01:32;;;;;;;12.15;7.03;;;27.30;99.90;;;;;;4157389;28;20052;-74
2022/09/19 00:03:43;;;;;;;10.43;8.18;;;27.30;99.90;;;;;;4146042;28;20046;-74
2022/09/19 00:05:48;;;;;;;11.32;8.15;;;27.30;99.90;;;;;;4144762;28;20057;-73
2022/09/19 00:07:58;;;;;;;9.85;8.07;;;27.40;99.90;;;;;;4146004;28;20046;-74
2022/09/19 00:10:07;;;;;;;10.68;7.05;;;27.40;99.90;;;;;;4157250;28;20112;-71
2022/09/19 00:12:22;;;;;;;12.00;7.68;;;27.50;99.90;;;;;;4144234;28;20505;-72
2022/09/19 00:14:32;;;;;;;8.18;7.00;;;27.50;99.90;;;;;;4144358;28;20058;-73
2022/09/19 00:16:44;;;;;;;11.68;7.63;;;27.50;99.90;;;;;;4144990;28;20553;-72
2022/09/19 00:18:56;;;;;;;11.32;7.28;;;27.60;99.90;;;;;;4174157;28;20060;-72
2022/09/19 00:21:09;;;;;;;9.45;6.85;;;27.60;99.90;;;;;;4143811;28;20058;-73
2022/09/19 00:25:59;;;;;;;13.13;8.35;;;27.70;99.90;;;;;;4143204;28;20050;-73
2022/09/19 00:28:12;;;;;;;14.77;9.10;;;27.80;99.90;;;;;;4144282;28;20081;-71
2022/09/19 00:30:27;;;;;;;14.35;8.55;;;27.80;99.90;;;;;;4158536;28;20143;-71
2022/09/19 00:32:34;;;;;;;9.85;8.13;;;27.80;99.90;;;;;;4145356;28;20061;-71
2022/09/19 00:34:43;;;;;;;12.73;9.10;;;27.80;99.90;;;;;;4142442;28;20077;-71
2022/09/19 00:36:51;;;;;;;12.35;8.43;;;27.80;99.90;;;;;;4171941;28;20504;-71
2022/09/19 00:38:57;;;;;;;11.30;8.60;;;27.90;99.90;;;;;;4175117;28;20036;-72
2022/09/19 00:41:05;;;;;;;12.13;8.30;;;27.90;99.90;;;;;;4143534;28;20149;-71
2022/09/19 00:43:25;;;;;;;11.90;7.75;;;28.00;99.90;;;;;;4158914;28;20051;-72
2022/09/19 00:45:35;;;;;;;12.20;7.88;;;28.00;99.90;;;;;;4147743;28;20056;-71
2022/09/19 00:47:50;;;;;;;10.07;7.65;;;28.00;99.90;;;;;;4175548;28;20520;-70
2022/09/19 00:50:03;;;;;;;;;;;28.00;99.90;;;;;;4147074;28;20050;-71
2022/09/19 00:52:26;;;;;;;10.40;7.82;;;27.90;99.90;;;;;;4148348;28;19932;-71
2022/09/19 00:54:51;;;;;;;10.82;7.47;;;27.90;99.90;;;;;;4170468;28;20060;-71
2022/09/19 00:57:00;;;;;;;12.68;8.52;;;28.00;99.90;;;;;;4157956;28;20077;-71
2022/09/19 00:59:21;;;;;;;13.57;6.57;;;28.10;99.90;;;;;;4131046;28;20046;-71
2022/09/19 01:01:38;;;;;;;19.90;7.75;;;28.20;99.90;;;;;;4153185;28;20045;-69
2022/09/19 01:03:52;;;;;;;10.25;6.38;;;28.20;99.90;;;;;;4131940;28;20042;-70
2022/09/19 01:06:40;;;;;;;9.05;6.13;;;28.20;99.90;;;;;;4143806;28;20049;-70
2022/09/19 01:09:18;;;;;;;8.80;5.70;;;28.30;99.90;;;;;;4148255;28;20362;-70
2022/09/19 01:12:16;;;;;;;11.27;5.65;;;28.30;99.90;;;;;;4148318;28;20099;-70
2022/09/19 01:14:53;;;;;;;9.15;5.10;;;28.30;99.90;;;;;;4147157;28;20049;-70
2022/09/19 01:17:17;;;;;;;8.27;4.45;;;28.30;99.90;;;;;;4148360;28;20076;-70
2022/09/19 01:19:46;;;;;;;6.43;3.90;;;28.20;99.90;;;;;;4180141;28;20153;-71
2022/09/19 01:22:17;;;;;;;8.23;4.13;;;28.30;99.90;;;;;;4147026;28;20080;-70
2022/09/19 01:24:43;;;;;;;5.20;3.90;;;28.30;99.90;;;;;;4163583;28;20053;-69
2022/09/19 01:27:26;;;;;;;7.20;3.58;;;28.20;99.90;;;;;;4148243;28;20054;-70
2022/09/19 01:29:43;;;;;;;5.95;3.60;;;28.20;99.90;;;;;;4149034;28;20050;-71
2022/09/19 01:31:53;;;;;;;4.90;3.53;;;28.20;99.90;;;;;;4163741;28;20516;-71
2022/09/19 01:34:20;;;;;;;8.95;3.80;;;28.30;99.90;;;;;;4163442;28;20061;-71
2022/09/19 01:36:31;;;;;;;5.90;3.10;;;28.30;99.90;;;;;;4148538;28;20064;-72
2022/09/19 01:38:40;;;;;;;6.82;3.22;;;28.20;99.90;;;;;;4163817;28;20069;-70
2022/09/19 01:40:45;;;;;;;7.53;3.47;;;28.30;99.90;;;;;;4146422;28;20061;-71
2022/09/19 01:42:57;;;;;;;4.88;3.00;;;28.40;99.90;;;;;;4178186;28;20107;-71
2022/09/19 01:45:08;;;;;;;5.82;2.78;;;28.50;99.90;;;;;;4146685;28;20070;-71
2022/09/19 01:47:32;;;;;;;5.13;3.17;;;28.50;99.90;;;;;;4163190;28;20046;-71
2022/09/19 01:50:05;;;;;;;6.32;2.80;;;28.60;99.90;;;;;;4113102;28;20042;-71
2022/09/19 01:52:36;;;;;;;4.35;3.00;;;28.50;99.90;;;;;;4146804;28;20050;-71
2022/09/19 01:55:08;;;;;;;3.97;2.50;;;28.60;99.90;;;;;;4177957;28;20143;-72
2022/09/19 01:57:55;;;;;;;8.32;2.60;;;28.80;99.90;;;;;;4179123;28;20057;-71
2022/09/19 02:00:16;;;;;;;5.35;3.08;;;28.90;99.90;;;;;;4179488;28;20080;-72
2022/09/19 02:03:03;;;;;;;6.55;2.53;;;28.90;99.90;;;;;;4156380;28;20052;-71
2022/09/19 02:05:41;;;;;;;4.57;2.50;;;29.00;99.90;;;;;;4177921;28;20041;-72
2022/09/19 02:08:03;;;;;;;5.82;2.65;;;28.90;99.90;;;;;;4177252;28;20434;-72
2022/09/19 02:10:16;;;;;;;5.28;2.80;;;29.00;99.90;;;;;;4145837;28;20048;-71
2022/09/19 02:12:36;;;;;;;3.92;2.38;;;28.90;99.90;;;;;;4174490;28;20503;-71
2022/09/19 02:14:59;;;;;;;3.63;2.00;;;28.90;99.90;;;;;;4161522;28;20068;-71
2022/09/19 02:17:13;;;;;;;4.57;2.40;;;28.90;99.90;;;;;;4178863;28;20704;-72
2022/09/19 02:19:34;;;;;;;6.93;2.20;;;28.90;99.90;;;;;;4161133;28;20447;-72
2022/09/19 02:21:52;;;;;;;7.47;2.58;;;29.00;99.90;;;;;;4161740;28;20065;-71
2022/09/19 02:24:06;;;;;;;3.30;2.50;;;29.10;99.90;;;;;;4146497;28;20110;-71
2022/09/19 02:26:20;;;;;;;4.43;2.53;;;29.10;99.90;;;;;;4146613;28;20094;-69
2022/09/19 02:28:51;;;;;;;3.95;2.28;;;29.00;99.90;;;;;;4160226;28;20055;-74
2022/09/19 02:31:05;;;;;;;4.68;2.17;;;29.00;99.90;;;;;;4146064;28;20054;-67
2022/09/19 02:33:18;;;;;;;3.33;2.00;;;29.10;99.90;;;;;;4146380;28;20053;-69
2022/09/19 02:36:00;;;;;;;3.38;2.08;;;29.10;99.90;;;;;;4145802;28;20080;-67
2022/09/19 02:38:39;;;;;;;3.30;2.40;;;29.30;99.90;;;;;;4177762;28;20676;-68
2022/09/19 02:41:37;;;;;;;6.30;2.88;;;29.40;99.90;;;;;;4144775;28;20140;-68
2022/09/19 02:44:36;;;;;;;3.47;2.10;;;29.60;99.90;;;;;;4146033;28;20049;-67
2022/09/19 02:47:16;;;;;;;3.58;2.05;;;29.40;99.90;;;;;;4161754;28;20045;-67
2022/09/19 02:49:40;;;;;;;3.42;2.30;;;29.40;99.90;;;;;;4145848;28;20074;-69
2022/09/19 02:51:55;;;;;;;2.92;2.30;;;29.50;99.90;;;;;;4144673;28;20169;-70
2022/09/19 02:54:07;;;;;;;5.57;2.20;;;29.60;99.90;;;;;;4174540;28;20115;-69
2022/09/19 02:56:17;;;;;;;3.65;2.17;;;29.70;99.90;;;;;;4144655;28;20064;-69
2022/09/19 02:58:31;;;;;;;4.45;2.45;;;29.50;99.90;;;;;;4171494;28;20191;-69
2022/09/19 03:00:38;;;;;;;4.65;2.00;;;29.40;99.90;;;;;;4161587;28;20435;-70
2022/09/19 03:02:59;;;;;;;4.82;2.70;;;29.30;99.90;;;;;;4176048;28;20049;-69
2022/09/19 03:05:21;;;;;;;4.65;2.38;;;29.50;99.90;;;;;;4174776;28;20041;-69
2022/09/19 03:07:53;;;;;;;8.13;2.40;;;29.60;99.90;;;;;;4157857;28;20049;-68
2022/09/19 03:10:12;;;;;;;3.90;2.13;;;29.60;99.90;;;;;;4176715;28;20975;-69
2022/09/19 03:12:47;;;;;;;3.47;2.10;;;29.70;99.90;;;;;;4143677;28;20124;-68
2022/09/19 03:15:12;;;;;;;8.43;2.55;;;29.70;99.90;;;;;;4130567;28;20062;-69
2022/09/19 03:17:40;;;;;;;5.05;2.35;;;29.80;99.90;;;;;;4129111;28;20062;-68
2022/09/19 03:20:11;;;;;;;5.07;2.53;;;30.00;99.90;;;;;;4144356;28;20081;-69
2022/09/19 03:22:26;;;;;;;3.20;2.28;;;30.10;99.90;;;;;;4145100;28;20054;-68
2022/09/19 03:24:38;;;;;;;4.15;2.47;;;30.20;99.90;;;;;;4161078;28;20068;-69
2022/09/19 03:26:50;;;;;;;5.68;2.45;;;30.20;99.90;;;;;;4158725;28;20045;-69
2022/09/19 03:29:16;;;;;;;4.00;2.67;;;30.20;99.90;;;;;;4172610;28;20081;-69
2022/09/19 03:31:41;;;;;;;4.15;2.40;;;30.30;99.90;;;;;;4160081;28;20060;-68
2022/09/19 03:34:03;;;;;;;7.00;2.50;;;30.20;99.90;;;;;;4146500;28;20058;-68
2022/09/19 03:36:17;;;;;;;3.05;2.17;;;30.10;99.90;;;;;;4160131;28;20045;-68
2022/09/19 03:38:45;;;;;;;5.18;2.70;;;30.00;99.90;;;;;;4173332;28;20489;-69
2022/09/19 03:41:02;;;;;;;4.53;2.70;;;29.90;99.90;;;;;;4161087;28;20049;-69
2022/09/19 03:43:17;;;;;;;5.63;2.70;;;29.80;99.90;;;;;;4146572;28;20145;-69
2022/09/19 03:45:28;;;;;;;3.67;2.70;;;29.80;99.90;;;;;;4146293;28;20045;-69
2022/09/19 03:47:55;;;;;;;7.43;3.00;;;29.80;99.90;;;;;;4159568;28;20061;-69
2022/09/19 03:50:21;;;;;;;5.38;2.90;;;29.80;99.90;;;;;;4160831;28;20496;-68
2022/09/19 03:52:40;;;;;;;5.68;3.08;;;29.80;99.90;;;;;;4141038;28;20212;-68
2022/09/19 03:54:47;;;;;;;5.60;3.17;;;29.70;99.90;;;;;;4167830;28;20053;-68
2022/09/19 03:56:53;;;;;;;5.25;2.95;;;29.70;99.90;;;;;;4169062;28;20426;-68
2022/09/19 03:59:00;;;;;;;4.40;2.63;;;29.80;99.90;;;;;;4170316;28;20056;-68
2022/09/19 04:01:08;;;;;;;3.15;2.47;;;30.00;99.90;;;;;;4157577;28;20050;-68
2022/09/19 04:03:14;;;;;;;3.83;2.45;;;30.30;99.90;;;;;;4160582;28;20128;-68
2022/09/19 04:05:20;;;;;;;7.18;2.60;;;30.50;99.90;;;;;;4152773;28;20424;-71
2022/09/19 04:07:27;;;;;;;5.32;2.85;;;30.70;99.90;;;;;;4160935;28;20043;-69
2022/09/19 04:09:32;;;;;;;4.43;2.70;;;30.60;99.90;;;;;;4166880;28;20045;-69
2022/09/19 04:11:41;;;;;;;2.70;1.92;;;30.70;99.90;;;;;;4160259;28;20052;-69
2022/09/19 04:13:52;;;;;;;2.45;1.77;;;30.80;99.90;;;;;;4144194;28;20049;-69
2022/09/19 04:15:57;;;;;;;3.55;1.70;;;30.70;99.90;;;;;;4176915;28;20514;-69
2022/09/19 04:18:05;;;;;;;4.00;1.60;;;30.80;99.90;;;;;;4143880;28;20459;-68
2022/09/19 04:20:27;;;;;;;2.42;1.70;;;30.90;99.90;;;;;;4157812;28;20073;-67
2022/09/19 04:23:15;;;;;;;3.08;1.70;;;31.10;99.90;;;;;;4141662;28;20054;-68
2022/09/19 04:26:00;;;;;;;4.47;1.85;;;31.20;99.90;;;;;;4154808;28;20053;-69
2022/09/19 04:28:30;;;;;;;2.67;1.90;;;31.20;99.90;;;;;;4154967;28;20140;-67
2022/09/19 04:30:57;;;;;;;5.45;1.75;;;31.20;99.90;;;;;;4156180;28;20046;-68
2022/09/19 04:33:04;;;;;;;2.85;1.63;;;31.30;99.90;;;;;;4144680;28;20073;-68
2022/09/19 04:35:26;;;;;;;3.60;1.77;;;31.10;99.90;;;;;;4156871;28;20069;-68
2022/09/19 04:37:53;;;;;;;4.20;1.70;;;31.00;99.90;;;;;;4141870;28;20042;-68
2022/09/19 04:40:06;;;;;;;3.70;1.80;;;31.10;99.90;;;;;;4158384;28;20129;-67
2022/09/19 04:42:25;;;;;;;2.17;1.83;;;31.30;99.90;;;;;;4142648;28;20089;-67
2022/09/19 04:44:44;;;;;;;3.10;1.48;;;31.20;99.90;;;;;;4142353;28;20121;-68
2022/09/19 04:47:05;;;;;;;5.75;1.70;;;31.00;99.90;;;;;;4157219;28;20536;-68
2022/09/19 04:49:34;;;;;;;3.65;1.50;;;30.90;99.90;;;;;;4167164;28;20045;-68
2022/09/19 04:51:59;;;;;;;2.05;1.50;;;31.20;99.90;;;;;;4157820;28;20520;-68
2022/09/19 04:54:16;;;;;;;3.35;1.80;;;31.40;99.90;;;;;;4171289;28;20049;-68
2022/09/19 04:56:26;;;;;;;4.45;1.95;;;31.30;99.90;;;;;;4150316;28;20077;-70
2022/09/19 04:58:33;;;;;;;4.88;1.80;;;31.10;99.90;;;;;;4134601;28;20061;-73
2022/09/19 05:00:40;;;;;;;4.15;2.10;;;30.90;99.90;;;;;;4128835;28;20129;-73
2022/09/19 05:02:55;;;;;;;2.70;1.98;;;30.80;99.90;;;;;;4138498;28;20057;-73
2022/09/19 05:05:04;;;;;;;3.38;1.83;;;30.80;99.90;;;;;;4175779;28;20392;-74
2022/09/19 05:07:09;;;;;;;3.55;2.03;;;30.70;99.90;;;;;;4160523;28;20061;-73
2022/09/19 05:09:16;;;;;;;5.03;1.92;;;30.70;99.90;;;;;;4176993;28;20557;-73
2022/09/19 05:11:37;;;;;;;8.55;3.80;;;30.70;99.90;;;;;;4145304;28;20509;-74
2022/09/19 05:13:41;;;;;;;11.73;6.15;;;30.70;99.90;;;;;;4145386;28;20046;-73
2022/09/19 05:15:52;;;;;;;8.88;4.07;;;30.70;99.90;;;;;;4160036;28;20472;-73
2022/09/19 05:18:00;;;;;;;4.93;2.50;;;30.80;99.90;;;;;;4160402;28;20042;-74
2022/09/19 05:20:04;;;;;;;5.65;2.60;;;31.20;99.90;;;;;;4143209;28;20057;-74
2022/09/19 05:22:12;;;;;;;3.63;2.47;;;31.20;99.90;;;;;;4159689;28;20155;-74
2022/09/19 05:24:20;;;;;;;3.17;2.20;;;31.30;99.90;;;;;;4143916;28;20042;-74
2022/09/19 05:26:27;;;;;;;5.60;2.13;;;31.30;99.90;;;;;;4159790;28;20092;-74
2022/09/19 05:28:38;;;;;;;3.72;2.10;;;31.30;99.90;;;;;;4143714;28;20060;-73
2022/09/19 05:30:54;;;;;;;2.75;1.92;;;31.40;99.90;;;;;;4145516;28;20065;-73
2022/09/19 05:33:03;;;;;;;4.78;2.08;;;31.60;99.90;;;;;;4162597;28;20049;-73
2022/09/19 05:35:18;;;;;;;6.95;1.80;;;31.70;99.90;;;;;;4163079;28;20069;-73
2022/09/19 05:37:39;;;;;;;3.05;1.40;;;31.50;99.90;;;;;;4131632;28;20050;-73
2022/09/19 05:40:04;;;;;;;3.20;1.52;;;31.40;99.90;;;;;;4131838;28;20108;-74
2022/09/19 05:42:25;;;;;;;4.15;1.50;;;31.50;99.90;;;;;;4131307;28;20133;-74
2022/09/19 05:44:32;;;;;;;2.30;1.60;;;31.70;99.90;;;;;;4163068;28;20068;-74
2022/09/19 05:46:39;;;;;;;2.00;1.50;;;31.70;99.90;;;;;;4162896;28;20048;-74
2022/09/19 05:48:46;;;;;;;3.30;1.67;;;31.80;99.90;;;;;;4151601;28;20124;-74
2022/09/19 05:50:54;;;;;;;3.88;1.50;;;31.90;99.80;;;;;;4179493;28;20044;-74
2022/09/19 05:55:17;;;;;;;2.25;1.80;;;31.80;99.90;;;;;;4179255;28;20602;-74
2022/09/19 05:57:36;;;;;;;3.13;1.70;;;31.80;99.90;;;;;;4177744;28;20583;-74
2022/09/19 05:59:46;;;;;;;2.10;1.40;;;31.90;99.90;;;;;;4148014;28;20058;-74
2022/09/19 06:01:56;;;;;;;4.78;1.63;;;31.90;99.90;;;;;;4178675;28;20119;-73
2022/09/19 06:04:14;;;;;;;2.97;1.50;;;31.90;99.90;;;;;;4147314;28;20837;-74
2022/09/19 06:06:29;;;;;;;2.65;1.48;;;31.70;99.90;;;;;;4177704;28;20041;-73
2022/09/19 06:08:45;;;;;;;3.38;1.70;;;31.80;99.90;;;;;;4177455;28;20047;-74
2022/09/19 06:11:03;;;;;;;3.45;1.55;;;31.90;99.90;;;;;;4147566;28;20065;-73
2022/09/19 06:13:17;;;;;;;2.65;1.30;;;31.80;98.50;;;;;;4162428;28;20041;-73
2022/09/19 06:15:24;;;;;;;2.13;1.30;;;31.80;99.30;;;;;;4146980;28;20050;-73
2022/09/19 06:17:32;;;;;;;3.05;1.48;;;31.90;99.80;;;;;;4147537;28;20041;-71
2022/09/19 06:19:54;;;;;;;3.33;1.42;;;31.90;99.90;;;;;;4147190;28;20068;-72
2022/09/19 06:22:21;;;;;;;2.42;1.38;;;31.80;99.90;;;;;;4147013;28;20038;-72
2022/09/19 06:24:31;;;;;;;2.58;1.73;;;31.70;99.90;;;;;;4145994;28;20042;-72
2022/09/19 06:26:36;;;;;;;3.30;1.70;;;31.60;99.90;;;;;;4146043;28;20053;-72
2022/09/19 06:28:43;;;;;;;2.35;1.35;;;31.40;99.90;;;;;;4145793;28;20078;-71
2022/09/19 06:30:50;;;;;;;3.88;1.30;;;31.20;99.60;;;;;;4145816;28;20038;-71
2022/09/19 06:33:00;;;;;;;2.70;1.48;;;31.00;99.90;;;;;;4146917;28;20436;-71
2022/09/19 06:35:20;;;;;;;5.82;1.42;;;31.00;99.90;;;;;;4146887;28;20515;-71
2022/09/19 06:37:29;;;;;;;3.30;1.90;;;31.00;99.90;;;;;;4145894;28;20045;-71
2022/09/19 06:39:34;;;;;;;5.95;1.60;;;31.00;99.90;;;;;;4178678;28;20060;-72
2022/09/19 06:42:01;;;;;;;6.32;1.77;;;30.90;99.90;;;;;;4146392;28;20126;-72
2022/09/19 06:44:19;;;;;;;5.38;2.05;;;30.90;99.90;;;;;;4162087;28;20137;-72
2022/09/19 06:46:37;;;;;;;3.28;1.80;;;31.00;99.90;;;;;;4146737;28;20050;-72
2022/09/19 06:49:01;;;;;;;4.75;2.08;;;31.00;99.90;;;;;;4161504;28;20432;-72
2022/09/19 06:51:14;;;;;;;4.68;1.98;;;31.00;99.90;;;;;;4178340;28;20083;-72
2022/09/19 06:53:19;;;;;;;3.25;1.88;;;31.10;99.90;;;;;;4178068;28;20056;-72
2022/09/19 06:55:30;;;;;;;5.15;1.85;;;31.20;99.90;;;;;;4145577;28;20104;-72
2022/09/19 06:57:42;;;;;;;4.03;1.80;;;31.20;99.90;;;;;;4178305;28;20570;-71
2022/09/19 06:59:47;;;;;;;5.57;1.90;;;31.30;99.90;;;;;;4178329;28;20167;-71
2022/09/19 07:01:55;;;;;;;6.03;1.98;;;31.40;99.90;;;;;;4145417;28;20089;-71
2022/09/19 07:04:04;;;;;;;5.72;2.00;;;31.50;99.90;;;;;;4146538;28;20056;-72
2022/09/19 07:06:20;;;;;;;2.92;1.90;;;31.60;99.90;;;;;;4146446;28;20440;-73
2022/09/19 07:08:41;;;;;;;3.92;1.85;;;31.60;99.90;;;;;;4146386;28;20104;-74
2022/09/19 07:10:49;;;;;;;2.60;1.90;;;31.60;99.90;;;;;;4177127;28;20051;-74
2022/09/19 07:12:56;;;;;;;3.03;2.25;;;31.60;99.90;;;;;;4161726;28;20669;-73
2022/09/19 07:15:20;;;;;;;3.50;2.00;;;31.60;99.90;;;;;;4145147;28;20144;-74
2022/09/19 07:17:42;;;;;;;4.32;2.40;;;31.70;99.90;;;;;;4144723;28;20314;-72
2022/09/19 07:19:53;;;;;;;6.70;2.28;;;31.70;99.90;;;;;;4161202;28;20069;-72
2022/09/19 07:22:19;;;;;;;5.85;2.33;;;31.70;99.90;;;;;;4146322;28;20099;-73
2022/09/19 07:25:01;;;;;;;6.93;2.75;;;31.70;99.90;;;;;;4146148;28;20077;-72
2022/09/19 07:27:11;;;;;;;4.43;2.33;;;31.60;99.90;;;;;;4160326;28;20448;-73
2022/09/19 07:29:18;;;;;;;2.60;1.92;;;31.60;99.90;;;;;;4160995;28;20046;-72
2022/09/19 07:31:29;;;;;;;3.63;1.98;;;31.60;99.90;;;;;;4177611;28;20664;-71
2022/09/19 07:33:33;;;;;;;2.78;1.85;;;31.50;99.90;;;;;;4144930;28;20508;-72
2022/09/19 07:35:41;;;;;;;4.28;1.73;;;31.50;99.90;;;;;;4145885;28;20065;-73
2022/09/19 07:37:50;;;;;;;2.33;1.50;;;31.50;99.90;;;;;;4143445;28;20062;-72
2022/09/19 07:40:10;;;;;;;3.10;1.40;;;31.60;99.90;;;;;;4146072;28;20068;-73
2022/09/19 07:42:26;;;;;;;2.90;1.80;;;31.60;99.90;;;;;;4160795;28;20063;-72
2022/09/19 07:44:55;;;;;;;3.35;1.75;;;31.60;99.90;;;;;;4157854;28;20054;-73
2022/09/19 07:49:41;;;;;;;5.20;1.98;;;31.60;99.90;;;;;;4144291;28;20048;-74
2022/09/19 07:52:03;;;;;;;2.60;1.70;;;31.60;99.90;;;;;;4146143;28;20124;-74
2022/09/19 07:54:08;;;;;;;3.20;1.85;;;31.60;99.90;;;;;;4143283;28;20058;-75
2022/09/19 07:56:17;;;;;;;3.28;1.90;;;31.50;99.90;;;;;;4178041;28;20047;-74
2022/09/19 07:58:25;;;;;;;3.70;2.28;;;31.50;99.90;;;;;;4170689;28;20043;-73
2022/09/19 08:00:34;;;;;;;4.53;2.15;;;31.50;99.90;;;;;;4161681;28;20057;-74
2022/09/19 08:02:41;;;;;;;4.03;1.80;;;31.40;99.90;;;;;;4145190;28;20066;-73
2022/09/19 08:04:48;;;;;;;6.68;2.03;;;31.50;99.90;;;;;;4144723;28;20045;-73
2022/09/19 08:06:53;;;;;;;5.10;2.03;;;31.30;99.90;;;;;;4161631;28;20041;-74
2022/09/19 08:09:00;;;;;;;6.78;2.20;;;31.30;99.90;;;;;;4161721;28;20050;-72
2022/09/19 08:11:21;;;;;;;4.15;1.90;;;31.30;99.90;;;;;;4137904;28;20405;-72
2022/09/19 08:13:27;;;;;;;3.92;1.85;;;31.40;99.90;;;;;;4161048;28;20064;-73
2022/09/19 08:15:34;;;;;;;5.97;2.10;;;31.40;99.90;;;;;;4145057;28;20069;-72
2022/09/19 08:17:43;;;;;;;5.00;2.53;;;31.40;99.90;;;;;;4161032;28;20041;-73
2022/09/19 08:19:50;;;;;;;3.47;1.85;;;31.40;99.90;;;;;;4145679;28;20095;-73
2022/09/19 08:21:57;;;;;;;4.35;2.20;;;31.30;99.90;;;;;;4161469;28;20045;-73
2022/09/19 08:24:11;;;;;;;6.80;1.63;;;31.30;99.90;;;;;;4144916;28;20045;-72
2022/09/19 08:26:30;;;;;;;5.05;1.90;;;31.30;99.90;;;;;;4159845;28;20076;-73
2022/09/19 08:28:38;;;;;;;7.05;1.77;;;31.20;99.90;;;;;;4145068;28;20339;-74
2022/09/19 08:30:50;;;;;;;3.78;2.42;;;31.00;99.90;;;;;;4161108;28;20077;-73
2022/09/19 08:33:00;;;;;;;6.47;2.38;;;31.00;99.90;;;;;;4161046;28;20063;-74
2022/09/19 08:35:09;;;;;;;4.15;2.33;;;30.90;99.90;;;;;;4144605;28;20068;-74
2022/09/19 08:37:30;;;;;;;5.57;1.90;;;31.00;99.90;;;;;;4159557;28;20072;-72
2022/09/19 08:42:22;;;;;;;3.97;2.10;;;31.20;99.90;;;;;;4161218;28;20076;-74
2022/09/19 08:44:51;;;;;;;8.30;3.40;;;31.20;99.90;;;;;;4144844;28;20127;-75
2022/09/19 08:47:13;;;;;;;29.45;7.80;;;31.30;99.90;;;;;;4161107;28;20061;-71
2022/09/19 08:49:28;;;;;;;31.98;6.13;;;31.30;99.90;;;;;;4145711;28;20049;-70
2022/09/19 08:51:58;;;;;;;6.32;2.35;;;31.30;99.90;;;;;;4145036;28;20694;-70
2022/09/19 08:54:32;;;;;;;7.45;2.17;;;31.30;99.90;;;;;;4176066;28;20945;-70
2022/09/19 08:56:43;;;;;;;4.97;2.70;;;31.30;99.90;;;;;;4160723;28;20100;-70
2022/09/19 08:58:54;;;;;;;3.13;2.35;;;31.20;99.90;;;;;;4176495;28;20076;-70
2022/09/19 09:01:21;;;;;;;3.92;2.50;;;31.20;99.90;;;;;;4145718;28;20108;-69
2022/09/19 09:04:00;;;;;;;5.65;2.30;;;31.20;99.90;;;;;;4145635;28;20483;-71
2022/09/19 09:06:38;;;;;;;6.70;3.22;;;31.20;99.90;;;;;;4180000;28;20103;-69
2022/09/19 09:09:26;;;;;;;10.98;2.60;;;31.20;99.90;;;;;;4163911;28;20524;-70
2022/09/19 09:11:40;;;;;;;6.25;2.70;;;31.30;99.90;;;;;;4179777;28;20507;-70
2022/09/19 09:14:08;;;;;;;5.03;2.30;;;31.40;99.90;;;;;;4163655;28;20046;-70
2022/09/19 09:16:28;;;;;;;3.78;1.73;;;31.50;99.90;;;;;;4148491;28;20050;-70
2022/09/19 09:18:57;;;;;;;2.28;1.58;;;31.50;99.90;;;;;;4162903;28;20618;-71
2022/09/19 09:21:33;;;;;;;4.45;2.20;;;31.50;99.90;;;;;;4148135;28;20053;-70
2022/09/19 09:23:44;;;;;;;2.53;1.52;;;31.50;99.90;;;;;;4148306;28;20093;-71
2022/09/19 09:26:14;;;;;;;2.88;2.28;;;31.50;99.90;;;;;;4179159;28;20147;-71
2022/09/19 09:28:25;;;;;;;;;;;31.50;99.90;;;;;;4180254;28;20128;-71
2022/09/19 09:30:44;;;;;;;4.90;3.30;;;31.50;99.90;;;;;;4146433;28;19932;-71
2022/09/19 09:33:11;;;;;;;9.75;3.25;;;31.50;99.90;;;;;;4147887;28;20058;-71
2022/09/19 09:35:31;;;;;;;5.70;2.40;;;31.50;99.90;;;;;;4147153;28;20046;-73
2022/09/19 09:37:56;;;;;;;5.07;2.25;;;31.50;99.90;;;;;;4148746;28;20080;-70
2022/09/19 09:42:59;;;;;;;4.43;2.20;;;31.50;99.90;;;;;;4146008;28;20140;-71
2022/09/19 09:45:22;;;;;;;6.55;2.42;;;31.50;99.90;;;;;;4147535;28;20052;-71
2022/09/19 09:48:14;;;;;;;6.72;2.53;;;31.40;99.90;;;;;;4145694;28;20089;-71
2022/09/19 09:51:05;;;;;;;6.38;3.05;;;31.30;99.90;;;;;;4158178;28;20041;-71
2022/09/19 09:53:20;;;;;;;6.43;3.47;;;31.30;99.90;;;;;;4176786;28;20052;-69
2022/09/19 09:58:45;;;;;;;10.10;6.20;;;31.30;99.90;;;;;;4177925;28;20099;-71
2022/09/19 10:04:16;;;;;;;9.88;3.90;;;31.30;99.90;;;;;;4177194;28;20055;-72
2022/09/19 10:06:33;;;;;;;9.48;4.05;;;31.20;99.90;;;;;;4160130;28;20124;-71
2022/09/19 10:09:02;;;;;;;7.00;4.07;;;31.20;99.90;;;;;;4147549;28;20049;-70
2022/09/19 10:11:42;;;;;;;5.97;3.72;;;31.20;99.90;;;;;;4145890;28;20050;-71
2022/09/19 10:14:29;;;;;;;7.50;3.67;;;31.20;99.90;;;;;;4125603;28;20169;-71
2022/09/19 10:17:00;;;;;;;7.10;3.97;;;31.20;99.90;;;;;;4125224;28;20375;-71
2022/09/19 10:19:41;;;;;;;6.15;4.68;;;31.10;99.90;;;;;;4126050;28;20073;-72
2022/09/19 10:21:48;;;;;;;7.43;4.28;;;31.10;99.90;;;;;;4125831;28;20061;-72
2022/09/19 10:23:57;;;;;;;7.90;4.75;;;31.10;99.90;;;;;;4110101;28;20086;-72
2022/09/19 10:26:07;;;;;;;11.93;8.77;;;31.00;99.90;;;;;;4125941;28;20046;-72
2022/09/19 10:28:17;;;;;;;13.88;8.43;;;31.00;99.90;;;;;;4109986;28;20057;-70
2022/09/19 10:30:41;;;;;;;11.68;6.10;;;30.90;99.90;;;;;;4109627;28;20071;-72
2022/09/19 10:32:54;;;;;;;9.57;5.40;;;30.90;99.90;;;;;;4095010;28;20134;-72
2022/09/19 10:35:33;;;;;;;7.10;4.38;;;30.90;99.90;;;;;;4126229;28;20073;-72
2022/09/19 10:37:40;;;;;;;4.82;3.63;;;30.80;99.90;;;;;;4109524;28;20050;-71
2022/09/19 10:39:48;;;;;;;4.03;2.95;;;30.80;99.90;;;;;;4077626;29;20048;-72
2022/09/19 10:42:00;;;;;;;4.30;3.08;;;30.80;99.90;;;;;;4123913;28;20081;-72
2022/09/19 10:44:19;;;;;;;5.80;4.10;;;30.80;99.90;;;;;;4111756;28;20133;-74
2022/09/19 10:46:38;;;;;;;7.30;3.70;;;30.70;99.90;;;;;;4158825;28;20049;-75
2022/09/19 10:48:56;;;;;;;5.90;3.28;;;30.70;99.90;;;;;;4143248;28;20408;-74
2022/09/19 10:51:12;;;;;;;5.07;3.00;;;30.60;99.90;;;;;;4158733;28;20155;-74
2022/09/19 10:53:22;;;;;;;5.57;3.05;;;30.60;99.90;;;;;;4143304;28;20412;-75
2022/09/19 10:55:28;;;;;;;5.68;3.10;;;30.50;99.90;;;;;;4143510;28;20042;-74
2022/09/19 10:57:57;;;;;;;6.60;3.10;;;30.50;99.90;;;;;;4155373;28;20056;-74
2022/09/19 11:00:34;;;;;;;8.57;3.35;;;30.40;99.90;;;;;;4174063;28;20050;-72
2022/09/19 11:03:07;;;;;;;7.30;3.17;;;30.40;99.90;;;;;;4146434;28;20045;-71
2022/09/19 11:05:27;;;;;;;6.00;3.35;;;30.40;99.90;;;;;;4158975;28;20104;-71
2022/09/19 11:07:54;;;;;;;8.13;3.30;;;30.30;99.90;;;;;;4159075;28;20092;-73
2022/09/19 11:10:40;;;;;;;7.32;3.58;;;30.30;99.90;;;;;;4157926;28;20514;-73
2022/09/19 11:13:25;;;;;;;7.55;3.75;;;30.20;99.90;;;;;;4155474;28;20046;-73
2022/09/19 11:15:55;;;;;;;7.80;3.80;;;30.10;99.90;;;;;;4174215;28;20049;-71
2022/09/19 11:18:09;;;;;;;7.43;3.75;;;30.20;99.90;;;;;;4143091;28;20148;-73
2022/09/19 11:20:49;;;;;;;11.38;5.15;;;30.20;99.90;;;;;;4173052;28;20051;-74
2022/09/19 11:23:36;;;;;;;7.32;4.72;;;30.20;99.90;;;;;;4124217;28;20112;-73
2022/09/19 11:26:06;;;;;;;7.93;4.47;;;30.20;99.90;;;;;;4141832;28;20547;-74
2022/09/19 11:28:29;;;;;;;5.63;3.90;;;30.00;99.90;;;;;;4175083;28;20061;-71
2022/09/19 11:30:45;;;;;;;;;;;30.00;99.90;;;;;;4158957;28;20047;-72
2022/09/19 11:33:16;;;;;;;6.95;3.20;;;29.90;99.90;;;;;;4175241;28;19954;-72
2022/09/19 11:36:23;;;;;;;5.05;2.88;;;29.90;99.90;;;;;;4175644;28;20083;-69
2022/09/19 11:38:48;;;;;;;4.85;2.30;;;30.00;99.90;;;;;;4143521;28;20148;-70
2022/09/19 11:41:32;;;;;;;5.70;2.85;;;29.90;99.90;;;;;;4175389;28;20049;-72
2022/09/19 11:44:07;;;;;;;5.38;2.83;;;29.90;99.90;;;;;;4159959;28;20042;-71
2022/09/19 11:46:30;;;;;;;4.85;2.45;;;30.00;99.90;;;;;;4143677;28;20132;-73
2022/09/19 11:49:09;;;;;;;2.55;1.80;;;29.90;99.90;;;;;;4159220;28;20633;-73
2022/09/19 11:51:44;;;;;;;4.68;2.50;;;29.80;99.90;;;;;;4157621;28;20037;-73
2022/09/19 11:54:28;;;;;;;9.40;3.15;;;29.90;99.90;;;;;;4175000;28;20048;-72
2022/09/19 11:57:15;;;;;;;4.90;2.47;;;29.80;99.90;;;;;;4144617;28;20707;-74
2022/09/19 11:59:40;;;;;;;4.10;2.30;;;29.80;99.90;;;;;;4169458;28;20049;-73
2022/09/19 12:02:10;;;;;;;3.67;2.00;;;29.70;99.90;;;;;;4142017;28;20048;-74
2022/09/19 12:04:32;;;;;;;2.10;1.40;;;29.70;99.90;;;;;;4161017;28;20369;-74
2022/09/19 12:07:02;;;;;;;2.88;1.60;;;29.60;99.90;;;;;;4160641;28;20045;-72
2022/09/19 12:09:31;;;;;;;4.38;1.80;;;29.50;99.90;;;;;;4177114;28;20040;-72
2022/09/19 12:11:56;;;;;;;3.75;2.10;;;29.60;99.90;;;;;;4145137;28;20547;-71
2022/09/19 12:14:20;;;;;;;5.13;2.10;;;29.60;99.90;;;;;;4162064;28;20126;-74
2022/09/19 12:16:51;;;;;;;4.45;1.95;;;29.50;99.90;;;;;;4159604;28;20061;-75
2022/09/19 12:19:04;;;;;;;5.65;1.85;;;29.50;99.90;;;;;;4171895;28;20142;-73
2022/09/19 12:21:12;;;;;;;7.43;2.20;;;29.50;99.90;;;;;;4144770;28;20045;-74
2022/09/19 12:26:26;;;;;;;5.97;2.40;;;29.40;99.90;;;;;;4164395;28;20037;-73